Baldwin, Georgia
Current Conditions -  °F | °C
As of 6:15 PM on Friday 31 Oct 2014 (Local Time) from KTOC Reporting Station
Broken Clouds Broken Clouds  
Wind Chill: 57°   Ceiling: 10000
Heat Index: 57°   Visibility: 10mi
Dew Point: 39°   Wind: 9mph
Humidity: 51%   Direction: 280°W
Pressure: 29.83"   Gusts: 18mph
Location:  34.49°N, 83.54°W
Report Text: KTOC 312215Z AUTO 28008G16KT 250V310 10SM SCT075 BKN100 14/04 A2983 RMK AO2 T01390038
Loading
Personal Weather Stations






























Interactive Weather Map
Tropical Storm Tracking
New forecast layout! Learn more

10-Day Weather Forecast

Advertisements
Track Severe Weather on mobile